createdAt,value
2023-03-26T00:03:03.303Z,98359.09
2023-03-26T00:06:07.685Z,98359.94
2023-03-26T00:09:13.630Z,98367.13
2023-03-26T00:12:16.516Z,98358.06
2023-03-26T00:15:20.768Z,98352.53
2023-03-26T00:18:24.955Z,98356.22
2023-03-26T00:21:30.414Z,98351.25
2023-03-26T00:24:33.224Z,98349.78
2023-03-26T00:27:36.028Z,98341.28
2023-03-26T00:30:44.545Z,98337.63
2023-03-26T00:33:55.563Z,98336.72
2023-03-26T00:37:02.485Z,98328.09
2023-03-26T00:40:11.121Z,98326.91
2023-03-26T00:43:19.645Z,98331.44
2023-03-26T00:46:24.138Z,98318.88
2023-03-26T00:49:27.581Z,98327.06
2023-03-26T00:52:30.373Z,98321.72
2023-03-26T00:55:33.152Z,98325.22
2023-03-26T00:58:37.206Z,98332.44
2023-03-26T01:01:41.500Z,98325.88
2023-03-26T01:04:50.900Z,98317.03
2023-03-26T01:07:53.776Z,98314.53
2023-03-26T01:11:03.981Z,98325.06
2023-03-26T01:14:08.231Z,98320.25
2023-03-26T01:17:14.117Z,98315.31
2023-03-26T01:20:21.268Z,98318.16
2023-03-26T01:23:26.350Z,98311.59
2023-03-26T01:26:44.005Z,98315.88
2023-03-26T01:29:52.901Z,98304.59
2023-03-26T01:32:59.822Z,98300.63
2023-03-26T01:36:06.647Z,98302.09
2023-03-26T01:39:12.365Z,98289.53
2023-03-26T01:42:17.472Z,98282.81
2023-03-26T01:45:23.350Z,98288.34
2023-03-26T01:48:30.745Z,98283.00
2023-03-26T01:51:34.616Z,98288.16
2023-03-26T01:54:37.377Z,98279.50
2023-03-26T01:57:48.587Z,98292.69
2023-03-26T02:00:56.836Z,98284.03
2023-03-26T02:04:03.554Z,98285.88
2023-03-26T02:07:09.387Z,98281.50
2023-03-26T02:10:13.632Z,98273.88
2023-03-26T02:13:16.929Z,98276.56
2023-03-26T02:16:21.293Z,98273.44
2023-03-26T02:19:26.774Z,98268.25
2023-03-26T02:22:35.511Z,98261.88
2023-03-26T02:25:42.264Z,98258.22
2023-03-26T02:28:45.366Z,98269.75
2023-03-26T02:31:50.085Z,98255.91
2023-03-26T02:34:52.914Z,98254.06
2023-03-26T02:37:55.712Z,98253.84
2023-03-26T02:40:58.467Z,98251.97
2023-03-26T02:44:01.271Z,98252.78
2023-03-26T02:47:05.458Z,98244.50
2023-03-26T02:50:09.066Z,98248.00
2023-03-26T02:53:12.054Z,98249.66
2023-03-26T02:56:14.789Z,98238.88
2023-03-26T02:59:17.573Z,98244.31
2023-03-26T03:02:24.399Z,98244.78
2023-03-26T03:05:27.277Z,98246.78
2023-03-26T03:08:34.151Z,98234.06
2023-03-26T03:11:37.136Z,98235.72
2023-03-26T03:14:40.898Z,98239.41
2023-03-26T03:17:45.166Z,98235.53
2023-03-26T03:20:47.941Z,98231.56
2023-03-26T03:23:52.049Z,98234.06
2023-03-26T03:26:56.914Z,98232.22
2023-03-26T03:29:59.664Z,98224.34
2023-03-26T03:33:03.946Z,98224.00
2023-03-26T03:36:10.569Z,98225.22
2023-03-26T03:39:23.949Z,98232.03
2023-03-26T03:42:28.473Z,98227.91
2023-03-26T03:45:31.234Z,98226.22
2023-03-26T03:48:38.222Z,98219.66
2023-03-26T03:51:42.937Z,98221.31
2023-03-26T03:54:47.488Z,98235.06
2023-03-26T03:57:51.550Z,98233.25
2023-03-26T04:01:00.838Z,98239.41
2023-03-26T04:04:05.615Z,98234.06
2023-03-26T04:07:08.555Z,98229.34
2023-03-26T04:10:11.715Z,98242.91
2023-03-26T04:13:15.486Z,98231.56
2023-03-26T04:16:23.349Z,98232.59
2023-03-26T04:19:28.726Z,98227.44
2023-03-26T04:22:34.767Z,98231.13
2023-03-26T04:25:39.810Z,98229.91
2023-03-26T04:28:46.360Z,98233.59
2023-03-26T04:31:50.499Z,98218.56
2023-03-26T04:34:56.011Z,98214.88
2023-03-26T04:37:58.730Z,98225.31
2023-03-26T04:41:04.545Z,98230.31
2023-03-26T04:44:08.675Z,98222.28
2023-03-26T04:47:11.420Z,98231.13
2023-03-26T04:50:18.104Z,98225.78
2023-03-26T04:53:25.511Z,98230.50
2023-03-26T04:56:39.312Z,98234.22
2023-03-26T04:59:43.152Z,98230.72
2023-03-26T05:02:45.988Z,98232.78
2023-03-26T05:05:59.532Z,98239.16
2023-03-26T05:09:03.318Z,98235.47
2023-03-26T05:12:08.873Z,98231.75
2023-03-26T05:15:12.515Z,98228.66
2023-03-26T05:18:16.369Z,98228.66
2023-03-26T05:21:20.822Z,98221.66
2023-03-26T05:24:26.151Z,98230.66
2023-03-26T05:27:28.852Z,98237.03
2023-03-26T05:30:33.528Z,98232.34
2023-03-26T05:33:36.648Z,98233.72
2023-03-26T05:36:40.918Z,98235.78
2023-03-26T05:39:43.968Z,98239.63
2023-03-26T05:42:46.908Z,98244.81
2023-03-26T05:45:51.748Z,98247.31
2023-03-26T05:48:54.764Z,98242.97
2023-03-26T05:51:59.936Z,98246.28
2023-03-26T05:55:08.047Z,98241.56
2023-03-26T05:58:10.805Z,98239.09
2023-03-26T06:01:16.908Z,98243.41
2023-03-26T06:04:19.981Z,98249.78
2023-03-26T06:07:28.293Z,98251.44
2023-03-26T06:10:36.262Z,98261.50
2023-03-26T06:13:41.571Z,98273.03
2023-03-26T06:16:44.331Z,98255.13
2023-03-26T06:19:47.954Z,98264.38
2023-03-26T06:22:52.085Z,98251.00
2023-03-26T06:25:54.980Z,98264.53
2023-03-26T06:28:57.715Z,98262.88
2023-03-26T06:32:18.324Z,98244.81
2023-03-26T06:35:31.917Z,98256.91
2023-03-26T06:38:36.197Z,98250.53
2023-03-26T06:41:44.554Z,98245.38
2023-03-26T06:44:48.341Z,98247.22
2023-03-26T06:47:52.704Z,98239.75
2023-03-26T06:50:55.886Z,98243.72
2023-03-26T06:54:00.171Z,98244.34
2023-03-26T06:57:02.981Z,98245.38
2023-03-26T07:00:09.219Z,98247.22
2023-03-26T07:03:12.376Z,98241.69
2023-03-26T07:06:15.204Z,98244.56
2023-03-26T07:09:37.935Z,98245.38
2023-03-26T07:12:42.967Z,98238.38
2023-03-26T07:15:46.677Z,98258.56
2023-03-26T07:18:52.177Z,98249.91
2023-03-26T07:21:55.417Z,98257.94
2023-03-26T07:25:00.048Z,98262.69
2023-03-26T07:28:06.774Z,98260.22
2023-03-26T07:31:16.963Z,98240.84
2023-03-26T07:34:33.095Z,98244.16
2023-03-26T07:37:46.302Z,98251.38
2023-03-26T07:40:54.480Z,98257.34
2023-03-26T07:44:10.473Z,98251.56
2023-03-26T07:47:19.857Z,98253.22
2023-03-26T07:50:24.808Z,98253.97
2023-03-26T07:53:27.737Z,98252.94
2023-03-26T07:56:34.769Z,98242.44
2023-03-26T07:59:39.570Z,98256.44
2023-03-26T08:02:58.968Z,98249.44
2023-03-26T08:06:10.135Z,98256.63
2023-03-26T08:09:17.642Z,98244.91
2023-03-26T08:12:31.493Z,98250.25
2023-03-26T08:15:39.289Z,98245.75
2023-03-26T08:18:48.794Z,98241.41
2023-03-26T08:21:54.254Z,98245.75
2023-03-26T08:25:05.400Z,98244.91
2023-03-26T08:28:17.879Z,98243.25
2023-03-26T08:31:25.256Z,98242.25
2023-03-26T08:34:29.223Z,98233.19
2023-03-26T08:37:32.049Z,98236.88
2023-03-26T08:41:02.968Z,98236.53
2023-03-26T08:44:18.002Z,98236.88
2023-03-26T08:47:38.711Z,98241.22
2023-03-26T08:50:56.562Z,98248.59
2023-03-26T08:54:18.242Z,98250.47
2023-03-26T08:57:39.638Z,98247.16
2023-03-26T09:01:05.498Z,98240.16
2023-03-26T09:04:41.330Z,98244.22
2023-03-26T09:07:53.027Z,98249.94
2023-03-26T09:11:28.763Z,98243.19
2023-03-26T09:14:40.758Z,98242.16
2023-03-26T09:18:01.439Z,98245.03
2023-03-26T09:21:13.517Z,98223.28
2023-03-26T09:24:34.680Z,98222.63
2023-03-26T09:27:38.945Z,98221.59
2023-03-26T09:30:57.810Z,98225.94
2023-03-26T09:34:13.938Z,98218.91
2023-03-26T09:37:23.832Z,98218.75
2023-03-26T09:40:39.033Z,98213.56
2023-03-26T09:44:05.617Z,98217.94
2023-03-26T09:47:23.196Z,98217.75
2023-03-26T09:50:34.675Z,98216.25
2023-03-26T09:53:52.252Z,98235.38
2023-03-26T09:56:58.821Z,98218.00
2023-03-26T10:00:23.622Z,98214.31
2023-03-26T10:03:30.521Z,98217.53
2023-03-26T10:06:48.185Z,98215.50
2023-03-26T10:09:55.771Z,98214.28
2023-03-26T10:13:13.602Z,98208.06
2023-03-26T10:16:22.629Z,98216.69
2023-03-26T10:19:34.617Z,98210.19
2023-03-26T10:22:44.935Z,98209.19
2023-03-26T10:26:04.401Z,98201.44
2023-03-26T10:29:22.630Z,98204.94
2023-03-26T10:32:30.541Z,98199.31
2023-03-26T10:35:40.974Z,98198.00
2023-03-26T10:38:54.785Z,98194.72
2023-03-26T10:42:04.164Z,98197.00
2023-03-26T10:45:20.008Z,98198.84
2023-03-26T10:48:29.318Z,98199.28
2023-03-26T10:51:44.241Z,98197.81
2023-03-26T10:54:51.234Z,98189.72
2023-03-26T10:57:58.156Z,98195.16
2023-03-26T11:01:04.727Z,98191.13
2023-03-26T11:04:17.829Z,98183.94
2023-03-26T11:07:22.496Z,98187.03
2023-03-26T11:10:40.963Z,98189.78
2023-03-26T11:13:50.217Z,98192.25
2023-03-26T11:16:59.345Z,98178.06
2023-03-26T11:20:06.298Z,98186.53
2023-03-26T11:23:36.561Z,98186.75
2023-03-26T11:26:46.047Z,98189.78
2023-03-26T11:29:52.906Z,98181.56
2023-03-26T11:33:00.771Z,98180.56
2023-03-26T11:36:07.743Z,98179.34
2023-03-26T11:39:14.984Z,98184.06
2023-03-26T11:42:29.948Z,98178.31
2023-03-26T11:45:34.140Z,98173.38
2023-03-26T11:48:38.265Z,98168.66
2023-03-26T11:51:43.270Z,98170.69
2023-03-26T11:54:48.539Z,98169.22
2023-03-26T11:57:54.836Z,98163.03
2023-03-26T12:00:57.951Z,98165.72
2023-03-26T12:04:05.244Z,98167.75
2023-03-26T12:07:10.900Z,98162.53
2023-03-26T12:10:23.123Z,98166.28
2023-03-26T12:13:30.505Z,98159.28
2023-03-26T12:16:37.220Z,98155.59
2023-03-26T12:19:43.817Z,98154.56
2023-03-26T12:22:48.470Z,98157.41
2023-03-26T12:26:05.490Z,98158.06
2023-03-26T12:29:11.480Z,98162.22
2023-03-26T12:32:16.283Z,98157.06
2023-03-26T12:35:20.205Z,98152.06
2023-03-26T12:38:24.227Z,98148.41
2023-03-26T12:42:52.741Z,98147.56
2023-03-26T12:45:00.515Z,98147.38
2023-03-26T12:48:04.541Z,98151.06
2023-03-26T12:51:12.557Z,98145.72
2023-03-26T12:54:23.898Z,98148.78
2023-03-26T12:57:30.868Z,98155.59
2023-03-26T13:00:43.448Z,98137.16
2023-03-26T13:03:57.940Z,98132.94
2023-03-26T13:07:07.912Z,98130.78
2023-03-26T13:10:34.538Z,98124.28
2023-03-26T13:13:52.865Z,98131.81
2023-03-26T13:17:01.088Z,98118.63
2023-03-26T13:20:12.499Z,98119.75
2023-03-26T13:23:21.857Z,98127.78
2023-03-26T13:26:31.445Z,98126.25
2023-03-26T13:29:39.653Z,98133.13
2023-03-26T13:32:49.228Z,98128.78
2023-03-26T13:36:10.270Z,98128.78
2023-03-26T13:39:26.286Z,98132.94
2023-03-26T13:42:40.680Z,98125.09
2023-03-26T13:45:47.962Z,98124.41
2023-03-26T13:48:55.416Z,98121.59
2023-03-26T13:51:59.894Z,98119.75
2023-03-26T13:55:07.447Z,98117.06
2023-03-26T13:58:16.115Z,98115.22
2023-03-26T14:01:24.221Z,98111.03
2023-03-26T14:04:32.637Z,98111.13
2023-03-26T14:07:42.817Z,98114.41
2023-03-26T14:10:50.504Z,98116.25
2023-03-26T14:13:57.580Z,98111.94
2023-03-26T14:17:04.232Z,98113.56
2023-03-26T14:20:26.194Z,98107.53
2023-03-26T14:23:58.834Z,98108.56
2023-03-26T14:27:20.664Z,98112.75
2023-03-26T14:30:50.467Z,98112.75
2023-03-26T14:34:07.245Z,98109.78
2023-03-26T14:37:28.047Z,98105.88
2023-03-26T14:40:39.645Z,98102.78
2023-03-26T14:43:50.513Z,98112.47
2023-03-26T14:47:04.679Z,98105.47
2023-03-26T14:50:26.703Z,98104.44
2023-03-26T14:53:33.530Z,98097.44
2023-03-26T14:56:50.821Z,98097.03
2023-03-26T15:00:14.446Z,98090.66
2023-03-26T15:03:42.367Z,98098.69
2023-03-26T15:07:04.089Z,98093.75
2023-03-26T15:10:18.709Z,98091.06
2023-03-26T15:13:43.094Z,98089.22
2023-03-26T15:17:09.562Z,98082.66
2023-03-26T15:20:37.513Z,98088.41
2023-03-26T15:24:08.440Z,98081.56
2023-03-26T15:27:24.726Z,98083.41
2023-03-26T15:30:45.404Z,98089.97
2023-03-26T15:34:08.064Z,98081.75
2023-03-26T15:37:33.571Z,98072.72
2023-03-26T15:40:40.470Z,98075.59
2023-03-26T15:44:23.956Z,98078.06
2023-03-26T15:47:37.627Z,98082.59
2023-03-26T15:50:54.048Z,98072.72
2023-03-26T15:54:08.750Z,98072.34
2023-03-26T15:57:21.376Z,98072.34
2023-03-26T16:00:26.593Z,98071.06
2023-03-26T16:03:37.172Z,98065.91
2023-03-26T16:06:48.264Z,98067.78
2023-03-26T16:09:59.980Z,98065.72
2023-03-26T16:13:17.647Z,98065.28
2023-03-26T16:16:24.651Z,98064.28
2023-03-26T16:19:36.311Z,98066.00
2023-03-26T16:22:55.007Z,98063.38
2023-03-26T16:26:12.375Z,98074.78
2023-03-26T16:29:26.373Z,98076.63
2023-03-26T16:32:30.384Z,98077.63
2023-03-26T16:35:56.158Z,98083.81
2023-03-26T16:39:13.425Z,98083.19
2023-03-26T16:42:31.427Z,98085.84
2023-03-26T16:45:35.650Z,98090.03
2023-03-26T16:48:41.582Z,98089.03
2023-03-26T16:51:54.694Z,98082.28
2023-03-26T16:55:06.546Z,98088.25
2023-03-26T16:58:15.041Z,98083.75
2023-03-26T17:01:23.112Z,98082.91
2023-03-26T17:04:29.070Z,98090.75
2023-03-26T17:07:38.382Z,98096.53
2023-03-26T17:10:48.491Z,98095.88
2023-03-26T17:14:01.132Z,98087.69
2023-03-26T17:17:10.881Z,98093.06
2023-03-26T17:20:21.139Z,98090.53
2023-03-26T17:23:40.188Z,98089.28
2023-03-26T17:26:48.609Z,98091.97
2023-03-26T17:30:06.538Z,98096.03
2023-03-26T17:33:14.563Z,98093.34
2023-03-26T17:36:32.500Z,98095.38
2023-03-26T17:40:14.772Z,98089.84
2023-03-26T17:43:51.160Z,98082.91
2023-03-26T17:46:57.495Z,98086.59
2023-03-26T17:50:01.627Z,98094.25
2023-03-26T17:53:14.597Z,98089.16
2023-03-26T17:56:19.374Z,98089.66
2023-03-26T17:59:24.265Z,98085.59
2023-03-26T18:02:35.539Z,98090.81
2023-03-26T18:05:42.898Z,98088.19
2023-03-26T18:08:57.923Z,98080.56
2023-03-26T18:12:06.591Z,98081.75
2023-03-26T18:15:17.056Z,98085.84
2023-03-26T18:18:23.765Z,98081.69
2023-03-26T18:21:29.412Z,98081.91
2023-03-26T18:24:38.044Z,98086.63
2023-03-26T18:27:41.903Z,98080.63
2023-03-26T18:30:47.305Z,98086.16
2023-03-26T18:33:55.807Z,98082.47
2023-03-26T18:37:14.862Z,98088.66
2023-03-26T18:40:19.365Z,98084.97
2023-03-26T18:43:34.488Z,98078.78
2023-03-26T18:46:37.869Z,98086.63
2023-03-26T18:49:42.989Z,98084.97
2023-03-26T18:52:47.565Z,98077.56
2023-03-26T18:55:53.117Z,98076.56
2023-03-26T18:59:00.122Z,98083.13
2023-03-26T19:02:05.329Z,98070.94
2023-03-26T19:05:13.864Z,98079.34
2023-03-26T19:08:17.635Z,98078.34
2023-03-26T19:11:24.460Z,98085.06
2023-03-26T19:14:28.687Z,98078.34
2023-03-26T19:17:34.436Z,98089.78
2023-03-26T19:20:40.978Z,98085.25
2023-03-26T19:23:46.759Z,98080.75
2023-03-26T19:26:49.760Z,98087.72
2023-03-26T19:29:52.562Z,98077.91
2023-03-26T19:32:55.805Z,98075.84
2023-03-26T19:36:21.218Z,98073.38
2023-03-26T19:39:36.513Z,98075.22
2023-03-26T19:42:43.708Z,98072.72
2023-03-26T19:46:04.952Z,98069.00
2023-03-26T19:49:27.288Z,98068.59
2023-03-26T19:52:36.563Z,98063.06
2023-03-26T19:55:40.653Z,98064.34
2023-03-26T19:58:45.950Z,98070.50
2023-03-26T20:01:49.250Z,98059.00
2023-03-26T20:04:52.078Z,98061.88
2023-03-26T20:07:57.469Z,98067.22
2023-03-26T20:11:00.339Z,98059.56
2023-03-26T20:14:04.952Z,98054.41
2023-03-26T20:17:11.989Z,98056.00
2023-03-26T20:20:15.857Z,98055.34
2023-03-26T20:23:19.996Z,98048.16
2023-03-26T20:26:23.514Z,98050.66
2023-03-26T20:29:28.365Z,98048.78
2023-03-26T20:32:33.007Z,98048.59
2023-03-26T20:35:36.931Z,98045.94
2023-03-26T20:38:41.173Z,98045.75
2023-03-26T20:41:48.470Z,98044.09
2023-03-26T20:44:51.329Z,98037.56
2023-03-26T20:47:54.354Z,98042.44
2023-03-26T20:51:01.820Z,98042.06
2023-03-26T20:54:07.875Z,98037.34
2023-03-26T20:57:11.884Z,98038.63
2023-03-26T21:00:18.615Z,98041.25
2023-03-26T21:03:21.391Z,98031.38
2023-03-26T21:06:24.161Z,98028.91
2023-03-26T21:09:35.596Z,98023.72
2023-03-26T21:12:42.271Z,98027.41
2023-03-26T21:15:45.304Z,98032.56
2023-03-26T21:18:49.373Z,98031.75
2023-03-26T21:22:01.585Z,98029.47
2023-03-26T21:25:11.845Z,98023.28
2023-03-26T21:28:31.938Z,98021.38
2023-03-26T21:31:39.101Z,98026.16
2023-03-26T21:34:55.689Z,98020.38
2023-03-26T21:38:01.588Z,98028.19
2023-03-26T21:41:06.201Z,98025.16
2023-03-26T21:44:09.422Z,98018.91
2023-03-26T21:47:12.522Z,98028.03
2023-03-26T21:50:16.651Z,98024.13
2023-03-26T21:53:19.676Z,98019.41
2023-03-26T21:56:28.125Z,98014.69
2023-03-26T21:59:36.241Z,98016.72
2023-03-26T22:02:43.842Z,98023.56
2023-03-26T22:05:53.529Z,98012.97
2023-03-26T22:08:56.512Z,98010.75
2023-03-26T22:12:02.173Z,98009.13
2023-03-26T22:15:07.691Z,98012.41
2023-03-26T22:18:10.419Z,98008.72
2023-03-26T22:21:14.220Z,98009.75
2023-03-26T22:24:17.685Z,98003.56
2023-03-26T22:27:23.114Z,98008.28
2023-03-26T22:30:25.862Z,98005.09
2023-03-26T22:33:31.564Z,98005.09
2023-03-26T22:36:34.375Z,98001.97
2023-03-26T22:39:37.939Z,98002.63
2023-03-26T22:42:43.320Z,98000.13
2023-03-26T22:45:49.983Z,98000.69
2023-03-26T22:48:57.037Z,98002.94
2023-03-26T22:51:59.843Z,97997.41
2023-03-26T22:55:03.056Z,97988.38
2023-03-26T22:58:08.131Z,97981.16
2023-03-26T23:01:16.245Z,97984.66
2023-03-26T23:04:31.413Z,97991.44
2023-03-26T23:07:35.095Z,97987.34
2023-03-26T23:10:38.343Z,97992.69
2023-03-26T23:13:46.216Z,97984.88
2023-03-26T23:16:53.703Z,97984.41
2023-03-26T23:20:02.960Z,97982.97
2023-03-26T23:23:07.662Z,97982.69
2023-03-26T23:26:15.048Z,97986.59
2023-03-26T23:29:19.478Z,97986.19
2023-03-26T23:32:27.004Z,97982.19
2023-03-26T23:35:29.784Z,97982.00
2023-03-26T23:38:44.029Z,97980.63
2023-03-26T23:41:47.275Z,97975.97
2023-03-26T23:44:51.564Z,97983.78
2023-03-26T23:48:00.413Z,97983.59
2023-03-26T23:51:04.516Z,97981.31
2023-03-26T23:54:08.747Z,97978.63
2023-03-26T23:57:11.859Z,97980.28
